Plaia De Esteiro — EAUV — position and weather

sailwx.info

Track history (hours):
 
Tides and Currents Weather Stations Pressure Air Temp Water Temp Dewpoint Dewpoint Depression Visibility Wind Speed Wind Dir Waves Ship Positions

Plaia De Esteiro

Last reported at 2017-Dec-08 18:15 UTC. Time now 2017-Dec-14 02:34 UTC.
Position N 43°19' W 001°55'.

Length 30 m.

Type: Ship. MMSI: 224050990.

Date/timePositionNaut miles runAvg speedWind from/ knotsBaromVisibWave heightAir tempDewpointWater temp
2017-Dec-08 18:15N 43°19' W 001°55'0 0.4
2017-Dec-08 18:00N 43°19' W 001°55'1 0.7
2017-Dec-08 15:59N 43°20' W 001°56'510.0
2017-Dec-08 15:31N 43°23' W 002°01'510.2
2017-Dec-08 15:00N 43°26' W 002°07'510.3
2017-Dec-08 14:30N 43°28' W 002°14'510.3
2017-Dec-08 14:01N 43°30' W 002°20'1 1.4
2017-Dec-08 13:30N 43°30' W 002°21'2 3.8
2017-Dec-08 13:01N 43°31' W 002°19'2 3.7
2017-Dec-08 12:31N 43°31' W 002°16'2 3.7
2017-Dec-08 12:01N 43°31' W 002°14'2 3.7
2017-Dec-08 11:31N 43°31' W 002°11'2 4.0
2017-Dec-08 11:00N 43°31' W 002°08'3 5.8
2017-Dec-08 10:31N 43°30' W 002°05'0 0.8
2017-Dec-08 10:00N 43°30' W 002°04'2 3.7
2017-Dec-08 09:30N 43°31' W 002°02'2 3.7
2017-Dec-08 09:00N 43°32' W 001°60'2 3.7
2017-Dec-08 08:31N 43°33' W 001°58'2 3.7
2017-Dec-08 08:00N 43°34' W 001°55'2 3.7
2017-Dec-08 07:31N 43°34' W 001°53'2 3.7
2017-Dec-08 07:00N 43°35' W 001°50'0 0.6
2017-Dec-08 06:31N 43°35' W 001°50'1 1.8
2017-Dec-08 06:01N 43°35' W 001°49'0 0.6
2017-Dec-08 05:30N 43°35' W 001°49'1 2.4
2017-Dec-08 05:00N 43°34' W 001°51'1 2.8
2017-Dec-08 04:31N 43°34' W 001°53'1 2.9
2017-Dec-08 04:00N 43°33' W 001°54'1 3.0
2017-Dec-08 03:30N 43°33' W 001°56'1 2.9
2017-Dec-08 03:01N 43°32' W 001°58'1 2.9
2017-Dec-08 02:30N 43°31' W 001°60'1 2.9
2017-Dec-08 02:01N 43°31' W 002°02'2 3.5
2017-Dec-08 01:30N 43°30' W 002°04'5 9.2
2017-Dec-08 01:00N 43°34' W 002°05'5 9.5
2017-Dec-08 00:30N 43°39' W 002°06'5 9.5
2017-Dec-08 00:00N 43°44' W 002°06'5 9.4
2017-Dec-07 23:30N 43°49' W 002°07'5 9.2
2017-Dec-07 23:01N 43°53' W 002°08'0 0.7
2017-Dec-07 22:31N 43°53' W 002°08'1 2.7
2017-Dec-07 22:01N 43°54' W 002°08'1 2.9
2017-Dec-07 21:30N 43°56' W 002°09'1 2.8
2017-Dec-07 21:01N 43°57' W 002°09'1 2.9
2017-Dec-07 20:31N 43°59' W 002°08'1 2.9
2017-Dec-07 20:01N 44°00' W 002°08'1 3.0
2017-Dec-07 19:31N 44°02' W 002°08'2 3.0
2017-Dec-07 19:00N 44°03' W 002°07'1 2.9
2017-Dec-07 18:31N 44°04' W 002°07'1 2.9
2017-Dec-07 18:00N 44°06' W 002°06'1 3.0
2017-Dec-07 17:31N 44°07' W 002°05'1 2.9
2017-Dec-07 17:01N 44°09' W 002°05'1 2.8
2017-Dec-07 16:31N 44°10' W 002°05'4 6.7
2017-Dec-07 15:54N 44°14' W 002°04'7 4.8
2017-Dec-07 14:33N 44°21' W 002°02'4 3.3
2017-Dec-07 13:18N 44°25' W 002°03'2 1.0
2017-Dec-07 10:54N 44°27' W 002°03'2 3.7
2017-Dec-07 10:21N 44°25' W 002°04'1 3.8
2017-Dec-07 10:01N 44°24' W 002°04'6 5.6
2017-Dec-07 08:52N 44°18' W 002°02'1 1.7
2017-Dec-07 08:30N 44°18' W 002°02'2 3.8
2017-Dec-07 08:00N 44°20' W 002°03'2 3.7
2017-Dec-07 07:30N 44°22' W 002°03'2 3.8
2017-Dec-07 07:01N 44°24' W 002°03'2 1.3
2017-Dec-07 05:41N 44°24' W 002°05'210.2
2017-Dec-07 05:30N 44°22' W 002°05'510.0
2017-Dec-07 05:01N 44°17' W 002°05'510.0
2017-Dec-07 04:30N 44°12' W 002°05'510.0
2017-Dec-07 04:01N 44°07' W 002°05'2 4.8
2017-Dec-07 03:31N 44°05' W 002°06'0 0.6
2017-Dec-07 03:01N 44°05' W 002°06'1 2.9
2017-Dec-07 02:31N 44°03' W 002°07'2 3.0
2017-Dec-07 02:01N 44°02' W 002°08'2 3.0
2017-Dec-07 01:31N 44°00' W 002°08'1 2.9
2017-Dec-07 01:01N 43°59' W 002°09'2 3.0
2017-Dec-07 00:30N 43°58' W 002°09'1 3.0
2017-Dec-07 00:01N 43°56' W 002°10'1 3.0
2017-Dec-06 23:31N 43°55' W 002°10'1 3.0
2017-Dec-06 23:01N 43°53' W 002°10'1 2.9
2017-Dec-06 22:31N 43°52' W 002°10'1 2.9
2017-Dec-06 22:01N 43°50' W 002°11'1 2.9
2017-Dec-06 21:31N 43°49' W 002°11'2 4.4
2017-Dec-06 21:00N 43°47' W 002°10'  
2017-Dec-04 10:31N 44°01' W 002°05'2 3.0
2017-Dec-04 10:00N 43°60' W 002°06'2 3.1
2017-Dec-04 09:31N 43°58' W 002°07'2 3.0
2017-Dec-04 09:01N 43°57' W 002°07'2 3.1
2017-Dec-04 08:31N 43°55' W 002°07'2 3.8
2017-Dec-04 08:00N 43°53' W 002°08'4 8.9
2017-Dec-04 07:31N 43°49' W 002°07'5 9.4
2017-Dec-04 07:00N 43°44' W 002°06'5 9.3
2017-Dec-04 06:31N 43°40' W 002°04'5 9.4
2017-Dec-04 06:01N 43°35' W 002°03'5 9.4
2017-Dec-04 05:31N 43°31' W 002°00'5 9.5
2017-Dec-04 05:00N 43°26' W 001°59'5 9.2
2017-Dec-04 04:30N 43°22' W 001°57'3 4.2
2017-Dec-04 03:49N 43°19' W 001°55'  
2017-Dec-01 18:08N 43°19' W 001°55'0 0.0
2017-Dec-01 17:35N 43°19' W 001°55'0 0.1
2017-Dec-01 17:29N 43°19' W 001°55'1 0.5
2017-Dec-01 16:23N 43°19' W 001°56'4 8.3
2017-Dec-01 15:53N 43°23' W 001°59'8 9.7
2017-Dec-01 15:03N 43°27' W 002°08'010.2
2017-Dec-01 15:01N 43°27' W 002°09'510.1
2017-Dec-01 14:30N 43°30' W 002°15'4 7.2
2017-Dec-01 14:00N 43°32' W 002°19'0 0.6
2017-Dec-01 13:31N 43°32' W 002°18'2 3.6
2017-Dec-01 13:01N 43°32' W 002°16'2 3.8
2017-Dec-01 12:30N 43°32' W 002°13'1 1.9
2017-Dec-01 12:00N 43°32' W 002°14'2 3.7
2017-Dec-01 11:30N 43°32' W 002°17'2 3.7
2017-Dec-01 11:00N 43°32' W 002°19'2 3.6
2017-Dec-01 10:30N 43°31' W 002°21'2 3.5
2017-Dec-01 10:00N 43°29' W 002°23'1 2.4
2017-Dec-01 09:31N 43°31' W 002°23'1 1.4
2017-Dec-01 09:00N 43°31' W 002°22'1 2.9
2017-Dec-01 08:31N 43°32' W 002°21'1 2.9
2017-Dec-01 08:00N 43°32' W 002°19'1 2.9
2017-Dec-01 07:30N 43°33' W 002°17'1 2.9
2017-Dec-01 07:00N 43°33' W 002°15'1 2.8
2017-Dec-01 06:30N 43°33' W 002°13'2 3.5
2017-Dec-01 06:00N 43°33' W 002°10'3 5.7
2017-Dec-01 05:30N 43°32' W 002°07'1 2.7
2017-Dec-01 05:00N 43°31' W 002°06'1 1.5
2017-Dec-01 04:30N 43°31' W 002°05'2 3.1
2017-Dec-01 04:00N 43°32' W 002°03'1 2.9
2017-Dec-01 03:30N 43°32' W 002°01'2 3.2
2017-Dec-01 03:00N 43°33' W 001°59'2 3.2
2017-Dec-01 02:30N 43°33' W 001°57'2 3.1
2017-Dec-01 02:00N 43°34' W 001°55'1 2.9
2017-Dec-01 01:30N 43°34' W 001°53'1 2.4
2017-Dec-01 01:00N 43°35' W 001°52'0 0.5
2017-Dec-01 00:30N 43°35' W 001°51'1 2.8
2017-Dec-01 00:00N 43°34' W 001°53'2 3.0
2017-Nov-30 23:31N 43°34' W 001°55'2 3.0
2017-Nov-30 23:00N 43°33' W 001°57'2 3.1
2017-Nov-30 22:30N 43°32' W 001°59'2 3.0
2017-Nov-30 22:00N 43°32' W 002°01'2 3.1
2017-Nov-30 21:30N 43°31' W 002°03'2 3.5
2017-Nov-30 21:01N 43°31' W 002°05'5 9.5
2017-Nov-30 20:30N 43°29' W 002°11'3 6.7
2017-Nov-30 20:01N 43°29' W 002°16'1 1.5
2017-Nov-30 19:30N 43°29' W 002°17'2 3.1
2017-Nov-30 19:00N 43°29' W 002°19'2 3.2
2017-Nov-30 18:30N 43°29' W 002°21'2 3.1
2017-Nov-30 18:00N 43°30' W 002°23'2 3.1
2017-Nov-30 17:30N 43°30' W 002°25'2 3.0
2017-Nov-30 17:00N 43°31' W 002°27'2 3.1
2017-Nov-30 16:30N 43°31' W 002°29'3 5.7
2017-Nov-30 16:01N 43°32' W 002°33'510.3
2017-Nov-30 15:30N 43°33' W 002°40'510.2
2017-Nov-30 15:00N 43°34' W 002°47'510.4
2017-Nov-30 14:30N 43°35' W 002°54'3 4.8
2017-Nov-30 13:54N 43°35' W 002°58'1 2.4
2017-Nov-30 13:30N 43°35' W 002°59'1 3.0
2017-Nov-30 13:01N 43°35' W 003°01'1 2.9
2017-Nov-30 12:30N 43°35' W 003°03'1 3.0
2017-Nov-30 12:00N 43°35' W 003°05'2 3.0
2017-Nov-30 11:29N 43°34' W 003°07'2 3.2
2017-Nov-30 11:00N 43°34' W 003°09'1 1.3
2017-Nov-30 10:30N 43°34' W 003°10'2 3.0
2017-Nov-30 10:00N 43°35' W 003°12'2 3.2
2017-Nov-30 09:30N 43°35' W 003°14'1 2.9
2017-Nov-30 09:00N 43°35' W 003°12'0 0.4
2017-Nov-30 08:01N 43°35' W 003°11'0 3.0
2017-Nov-30 07:59N 43°35' W 003°11'2 3.0
2017-Nov-30 07:28N 43°34' W 003°13'2 3.5
2017-Nov-30 07:00N 43°34' W 003°15'4 7.7
2017-Nov-30 06:31N 43°33' W 003°20'510.2
2017-Nov-30 06:00N 43°33' W 003°27'610.5
2017-Nov-30 05:28N 43°33' W 003°35'510.4
2017-Nov-30 04:59N 43°34' W 003°42'84 9.7
2017-Nov-29 20:18N 43°35' W 005°38'3 8.6
2017-Nov-29 19:59N 43°33' W 005°42'0 0.3
2017-Nov-29 19:30N 43°33' W 005°42'0 0.0
2017-Nov-29 18:55N 43°33' W 005°42'0 0.0
2017-Nov-29 18:31N 43°33' W 005°42'5 8.0
2017-Nov-29 17:52N 43°35' W 005°35'  
Track history (hours):
 
Tides and Currents Weather Stations Pressure Air Temp Water Temp Dewpoint Dewpoint Depression Visibility Wind Speed Wind Dir Waves Ship Positions

Plaia De Esteiro

Last reported at 2017-Dec-08 18:15 UTC. Time now 2017-Dec-14 02:34 UTC.
Position N 43°19' W 001°55'.

Length 30 m.

Type: Ship. MMSI: 224050990.

Date/timePositionNaut miles runAvg speedWind from/ knotsBaromVisibWave heightAir tempDewpointWater temp
2017-Dec-08 18:15N 43°19' W 001°55'0 0.4
2017-Dec-08 18:00N 43°19' W 001°55'1 0.7
2017-Dec-08 15:59N 43°20' W 001°56'510.0
2017-Dec-08 15:31N 43°23' W 002°01'510.2
2017-Dec-08 15:00N 43°26' W 002°07'510.3
2017-Dec-08 14:30N 43°28' W 002°14'510.3
2017-Dec-08 14:01N 43°30' W 002°20'1 1.4
2017-Dec-08 13:30N 43°30' W 002°21'2 3.8
2017-Dec-08 13:01N 43°31' W 002°19'2 3.7
2017-Dec-08 12:31N 43°31' W 002°16'2 3.7
2017-Dec-08 12:01N 43°31' W 002°14'2 3.7
2017-Dec-08 11:31N 43°31' W 002°11'2 4.0
2017-Dec-08 11:00N 43°31' W 002°08'3 5.8
2017-Dec-08 10:31N 43°30' W 002°05'0 0.8
2017-Dec-08 10:00N 43°30' W 002°04'2 3.7
2017-Dec-08 09:30N 43°31' W 002°02'2 3.7
2017-Dec-08 09:00N 43°32' W 001°60'2 3.7
2017-Dec-08 08:31N 43°33' W 001°58'2 3.7
2017-Dec-08 08:00N 43°34' W 001°55'2 3.7
2017-Dec-08 07:31N 43°34' W 001°53'2 3.7
2017-Dec-08 07:00N 43°35' W 001°50'0 0.6
2017-Dec-08 06:31N 43°35' W 001°50'1 1.8
2017-Dec-08 06:01N 43°35' W 001°49'0 0.6
2017-Dec-08 05:30N 43°35' W 001°49'1 2.4
2017-Dec-08 05:00N 43°34' W 001°51'1 2.8
2017-Dec-08 04:31N 43°34' W 001°53'1 2.9
2017-Dec-08 04:00N 43°33' W 001°54'1 3.0
2017-Dec-08 03:30N 43°33' W 001°56'1 2.9
2017-Dec-08 03:01N 43°32' W 001°58'1 2.9
2017-Dec-08 02:30N 43°31' W 001°60'1 2.9
2017-Dec-08 02:01N 43°31' W 002°02'2 3.5
2017-Dec-08 01:30N 43°30' W 002°04'5 9.2
2017-Dec-08 01:00N 43°34' W 002°05'5 9.5
2017-Dec-08 00:30N 43°39' W 002°06'5 9.5
2017-Dec-08 00:00N 43°44' W 002°06'5 9.4
2017-Dec-07 23:30N 43°49' W 002°07'5 9.2
2017-Dec-07 23:01N 43°53' W 002°08'0 0.7
2017-Dec-07 22:31N 43°53' W 002°08'1 2.7
2017-Dec-07 22:01N 43°54' W 002°08'1 2.9
2017-Dec-07 21:30N 43°56' W 002°09'1 2.8
2017-Dec-07 21:01N 43°57' W 002°09'1 2.9
2017-Dec-07 20:31N 43°59' W 002°08'1 2.9
2017-Dec-07 20:01N 44°00' W 002°08'1 3.0
2017-Dec-07 19:31N 44°02' W 002°08'2 3.0
2017-Dec-07 19:00N 44°03' W 002°07'1 2.9
2017-Dec-07 18:31N 44°04' W 002°07'1 2.9
2017-Dec-07 18:00N 44°06' W 002°06'1 3.0
2017-Dec-07 17:31N 44°07' W 002°05'1 2.9
2017-Dec-07 17:01N 44°09' W 002°05'1 2.8
2017-Dec-07 16:31N 44°10' W 002°05'4 6.7
2017-Dec-07 15:54N 44°14' W 002°04'7 4.8
2017-Dec-07 14:33N 44°21' W 002°02'4 3.3
2017-Dec-07 13:18N 44°25' W 002°03'2 1.0
2017-Dec-07 10:54N 44°27' W 002°03'2 3.7
2017-Dec-07 10:21N 44°25' W 002°04'1 3.8
2017-Dec-07 10:01N 44°24' W 002°04'6 5.6
2017-Dec-07 08:52N 44°18' W 002°02'1 1.7
2017-Dec-07 08:30N 44°18' W 002°02'2 3.8
2017-Dec-07 08:00N 44°20' W 002°03'2 3.7
2017-Dec-07 07:30N 44°22' W 002°03'2 3.8
2017-Dec-07 07:01N 44°24' W 002°03'2 1.3
2017-Dec-07 05:41N 44°24' W 002°05'210.2
2017-Dec-07 05:30N 44°22' W 002°05'510.0
2017-Dec-07 05:01N 44°17' W 002°05'510.0
2017-Dec-07 04:30N 44°12' W 002°05'510.0
2017-Dec-07 04:01N 44°07' W 002°05'2 4.8
2017-Dec-07 03:31N 44°05' W 002°06'0 0.6
2017-Dec-07 03:01N 44°05' W 002°06'1 2.9
2017-Dec-07 02:31N 44°03' W 002°07'2 3.0
2017-Dec-07 02:01N 44°02' W 002°08'2 3.0
2017-Dec-07 01:31N 44°00' W 002°08'1 2.9
2017-Dec-07 01:01N 43°59' W 002°09'2 3.0
2017-Dec-07 00:30N 43°58' W 002°09'1 3.0
2017-Dec-07 00:01N 43°56' W 002°10'1 3.0
2017-Dec-06 23:31N 43°55' W 002°10'1 3.0
2017-Dec-06 23:01N 43°53' W 002°10'1 2.9
2017-Dec-06 22:31N 43°52' W 002°10'1 2.9
2017-Dec-06 22:01N 43°50' W 002°11'1 2.9
2017-Dec-06 21:31N 43°49' W 002°11'2 4.4
2017-Dec-06 21:00N 43°47' W 002°10'  
2017-Dec-04 10:31N 44°01' W 002°05'2 3.0
2017-Dec-04 10:00N 43°60' W 002°06'2 3.1
2017-Dec-04 09:31N 43°58' W 002°07'2 3.0
2017-Dec-04 09:01N 43°57' W 002°07'2 3.1
2017-Dec-04 08:31N 43°55' W 002°07'2 3.8
2017-Dec-04 08:00N 43°53' W 002°08'4 8.9
2017-Dec-04 07:31N 43°49' W 002°07'5 9.4
2017-Dec-04 07:00N 43°44' W 002°06'5 9.3
2017-Dec-04 06:31N 43°40' W 002°04'5 9.4
2017-Dec-04 06:01N 43°35' W 002°03'5 9.4
2017-Dec-04 05:31N 43°31' W 002°00'5 9.5
2017-Dec-04 05:00N 43°26' W 001°59'5 9.2
2017-Dec-04 04:30N 43°22' W 001°57'3 4.2
2017-Dec-04 03:49N 43°19' W 001°55'  
2017-Dec-01 18:08N 43°19' W 001°55'0 0.0
2017-Dec-01 17:35N 43°19' W 001°55'0 0.1
2017-Dec-01 17:29N 43°19' W 001°55'1 0.5
2017-Dec-01 16:23N 43°19' W 001°56'4 8.3
2017-Dec-01 15:53N 43°23' W 001°59'8 9.7
2017-Dec-01 15:03N 43°27' W 002°08'010.2
2017-Dec-01 15:01N 43°27' W 002°09'510.1
2017-Dec-01 14:30N 43°30' W 002°15'4 7.2
2017-Dec-01 14:00N 43°32' W 002°19'0 0.6
2017-Dec-01 13:31N 43°32' W 002°18'2 3.6
2017-Dec-01 13:01N 43°32' W 002°16'2 3.8
2017-Dec-01 12:30N 43°32' W 002°13'1 1.9
2017-Dec-01 12:00N 43°32' W 002°14'2 3.7
2017-Dec-01 11:30N 43°32' W 002°17'2 3.7
2017-Dec-01 11:00N 43°32' W 002°19'2 3.6
2017-Dec-01 10:30N 43°31' W 002°21'2 3.5
2017-Dec-01 10:00N 43°29' W 002°23'1 2.4
2017-Dec-01 09:31N 43°31' W 002°23'1 1.4
2017-Dec-01 09:00N 43°31' W 002°22'1 2.9
2017-Dec-01 08:31N 43°32' W 002°21'1 2.9
2017-Dec-01 08:00N 43°32' W 002°19'1 2.9
2017-Dec-01 07:30N 43°33' W 002°17'1 2.9
2017-Dec-01 07:00N 43°33' W 002°15'1 2.8
2017-Dec-01 06:30N 43°33' W 002°13'2 3.5
2017-Dec-01 06:00N 43°33' W 002°10'3 5.7
2017-Dec-01 05:30N 43°32' W 002°07'1 2.7
2017-Dec-01 05:00N 43°31' W 002°06'1 1.5
2017-Dec-01 04:30N 43°31' W 002°05'2 3.1
2017-Dec-01 04:00N 43°32' W 002°03'1 2.9
2017-Dec-01 03:30N 43°32' W 002°01'2 3.2
2017-Dec-01 03:00N 43°33' W 001°59'2 3.2
2017-Dec-01 02:30N 43°33' W 001°57'2 3.1
2017-Dec-01 02:00N 43°34' W 001°55'1 2.9
2017-Dec-01 01:30N 43°34' W 001°53'1 2.4
2017-Dec-01 01:00N 43°35' W 001°52'0 0.5
2017-Dec-01 00:30N 43°35' W 001°51'1 2.8
2017-Dec-01 00:00N 43°34' W 001°53'2 3.0
2017-Nov-30 23:31N 43°34' W 001°55'2 3.0
2017-Nov-30 23:00N 43°33' W 001°57'2 3.1
2017-Nov-30 22:30N 43°32' W 001°59'2 3.0
2017-Nov-30 22:00N 43°32' W 002°01'2 3.1
2017-Nov-30 21:30N 43°31' W 002°03'2 3.5
2017-Nov-30 21:01N 43°31' W 002°05'5 9.5
2017-Nov-30 20:30N 43°29' W 002°11'3 6.7
2017-Nov-30 20:01N 43°29' W 002°16'1 1.5
2017-Nov-30 19:30N 43°29' W 002°17'2 3.1
2017-Nov-30 19:00N 43°29' W 002°19'2 3.2
2017-Nov-30 18:30N 43°29' W 002°21'2 3.1
2017-Nov-30 18:00N 43°30' W 002°23'2 3.1
2017-Nov-30 17:30N 43°30' W 002°25'2 3.0
2017-Nov-30 17:00N 43°31' W 002°27'2 3.1
2017-Nov-30 16:30N 43°31' W 002°29'3 5.7
2017-Nov-30 16:01N 43°32' W 002°33'510.3
2017-Nov-30 15:30N 43°33' W 002°40'510.2
2017-Nov-30 15:00N 43°34' W 002°47'510.4
2017-Nov-30 14:30N 43°35' W 002°54'3 4.8
2017-Nov-30 13:54N 43°35' W 002°58'1 2.4
2017-Nov-30 13:30N 43°35' W 002°59'1 3.0
2017-Nov-30 13:01N 43°35' W 003°01'1 2.9
2017-Nov-30 12:30N 43°35' W 003°03'1 3.0
2017-Nov-30 12:00N 43°35' W 003°05'2 3.0
2017-Nov-30 11:29N 43°34' W 003°07'2 3.2
2017-Nov-30 11:00N 43°34' W 003°09'1 1.3
2017-Nov-30 10:30N 43°34' W 003°10'2 3.0
2017-Nov-30 10:00N 43°35' W 003°12'2 3.2
2017-Nov-30 09:30N 43°35' W 003°14'1 2.9
2017-Nov-30 09:00N 43°35' W 003°12'0 0.4
2017-Nov-30 08:01N 43°35' W 003°11'0 3.0
2017-Nov-30 07:59N 43°35' W 003°11'2 3.0
2017-Nov-30 07:28N 43°34' W 003°13'2 3.5
2017-Nov-30 07:00N 43°34' W 003°15'4 7.7
2017-Nov-30 06:31N 43°33' W 003°20'510.2
2017-Nov-30 06:00N 43°33' W 003°27'610.5
2017-Nov-30 05:28N 43°33' W 003°35'510.4
2017-Nov-30 04:59N 43°34' W 003°42'84 9.7
2017-Nov-29 20:18N 43°35' W 005°38'3 8.6
2017-Nov-29 19:59N 43°33' W 005°42'0 0.3
2017-Nov-29 19:30N 43°33' W 005°42'0 0.0
2017-Nov-29 18:55N 43°33' W 005°42'0 0.0
2017-Nov-29 18:31N 43°33' W 005°42'5 8.0
2017-Nov-29 17:52N 43°35' W 005°35'  

Dump ship's entire track history